Time;durP1;ratioP1;P1;durP2;ratioP2;P2;SDS_P1;SDS_P2;PMS_P1;PMS_P2;Temp;Humidity;BMP_temperature;BMP_pressure;BME280_temperature;BME280_humidity;BME280_pressure;Samples;Min_cycle;Max_cycle;Signal;HPM_P1;HPM_P2
2021/07/23 00:00:52;;;;;;;11.38;7.80;;;16.30;99.90;;;;;;5033529;28;20030;-40
2021/07/23 00:03:18;;;;;;;10.82;7.95;;;16.30;99.90;;;;;;5033382;28;20051;-41
2021/07/23 00:05:44;;;;;;;9.77;7.15;;;16.20;99.90;;;;;;5033353;28;20036;-40
2021/07/23 00:08:09;;;;;;;11.70;7.57;;;16.10;99.90;;;;;;5033439;28;20029;-40
2021/07/23 00:10:35;;;;;;;11.82;8.32;;;15.90;99.90;;;;;;5033285;28;20092;-39
2021/07/23 00:13:00;;;;;;;11.30;7.57;;;15.90;99.90;;;;;;5033356;28;20036;-39
2021/07/23 00:15:26;;;;;;;10.52;7.32;;;15.80;99.90;;;;;;5031959;28;20473;-41
2021/07/23 00:17:52;;;;;;;10.63;8.27;;;15.70;99.90;;;;;;5033064;28;20108;-41
2021/07/23 00:20:17;;;;;;;11.73;8.20;;;15.60;99.90;;;;;;5033211;28;20080;-40
2021/07/23 00:22:43;;;;;;;12.50;9.05;;;15.50;99.90;;;;;;5015501;28;20037;-40
2021/07/23 00:25:09;;;;;;;15.50;9.13;;;15.50;99.90;;;;;;5033099;28;20053;-40
2021/07/23 00:27:35;;;;;;;12.88;9.32;;;15.40;99.90;;;;;;5033060;28;20031;-40
2021/07/23 00:30:00;;;;;;;14.32;8.68;;;15.30;99.90;;;;;;5031815;28;20017;-39
2021/07/23 00:32:26;;;;;;;15.48;8.32;;;15.20;99.90;;;;;;5015235;28;20524;-40
2021/07/23 00:34:52;;;;;;;13.40;8.02;;;15.20;99.90;;;;;;5032921;28;20104;-40
2021/07/23 00:37:17;;;;;;;13.27;8.25;;;15.10;99.90;;;;;;5032803;28;20065;-39
2021/07/23 00:39:43;;;;;;;12.30;7.68;;;15.00;99.90;;;;;;5032897;28;20033;-42
2021/07/23 00:42:08;;;;;;;13.55;7.82;;;14.90;99.90;;;;;;5032966;28;20033;-39
2021/07/23 00:44:35;;;;;;;10.95;7.13;;;14.90;99.90;;;;;;5031454;28;20178;-39
2021/07/23 00:47:01;;;;;;;13.13;8.18;;;14.80;99.90;;;;;;5032854;28;20021;-41
2021/07/23 00:49:27;;;;;;;12.85;9.00;;;14.80;99.90;;;;;;5032763;28;20018;-39
2021/07/23 00:51:53;;;;;;;11.95;7.53;;;14.70;99.90;;;;;;5032792;28;20032;-41
2021/07/23 00:54:19;;;;;;;17.88;9.55;;;14.70;99.90;;;;;;5032800;28;20072;-41
2021/07/23 00:56:45;;;;;;;16.05;7.93;;;14.70;99.90;;;;;;5032665;28;20489;-39
2021/07/23 00:59:12;;;;;;;11.98;7.40;;;14.60;99.90;;;;;;5031433;28;20106;-39
2021/07/23 01:01:37;;;;;;;11.18;8.13;;;14.60;99.90;;;;;;5032583;28;20033;-40
2021/07/23 01:04:03;;;;;;;13.40;8.75;;;14.50;99.90;;;;;;5032677;28;20508;-39
2021/07/23 01:06:29;;;;;;;15.82;9.13;;;14.40;99.90;;;;;;5032588;28;20064;-39
2021/07/23 01:08:55;;;;;;;12.93;8.45;;;14.40;99.90;;;;;;5032642;28;20068;-39
2021/07/23 01:11:23;;;;;;;16.05;9.32;;;14.40;99.90;;;;;;5032600;28;20093;-39
2021/07/23 01:13:49;;;;;;;18.58;9.73;;;14.30;99.90;;;;;;5031324;28;20488;-42
2021/07/23 01:16:15;;;;;;;12.52;8.55;;;14.30;99.90;;;;;;5032432;28;20029;-39
2021/07/23 01:18:42;;;;;;;13.55;9.02;;;14.30;99.90;;;;;;5032525;28;20065;-40
2021/07/23 01:21:07;;;;;;;14.00;9.20;;;14.20;99.90;;;;;;5032553;28;20100;-40
2021/07/23 01:23:35;;;;;;;16.98;9.68;;;14.20;99.90;;;;;;5032571;28;20216;-39
2021/07/23 01:26:02;;;;;;;14.27;10.15;;;14.20;99.90;;;;;;5032443;28;20084;-39
2021/07/23 01:28:30;;;;;;;17.95;11.45;;;14.20;99.90;;;;;;5031180;28;20070;-39
2021/07/23 01:30:58;;;;;;;15.30;10.02;;;14.10;99.90;;;;;;5032324;28;20032;-39
2021/07/23 01:33:24;;;;;;;13.90;8.55;;;14.10;99.90;;;;;;5032446;28;20021;-41
2021/07/23 01:35:50;;;;;;;14.18;9.13;;;14.00;99.90;;;;;;5032216;28;20022;-40
2021/07/23 01:38:16;;;;;;;13.75;9.43;;;14.00;99.90;;;;;;5032386;28;20030;-39
2021/07/23 01:40:43;;;;;;;16.00;9.70;;;14.00;99.90;;;;;;5032331;28;20436;-39
2021/07/23 01:43:08;;;;;;;21.20;12.02;;;13.90;99.90;;;;;;5031061;28;20026;-41
2021/07/23 01:45:34;;;;;;;17.60;10.85;;;13.90;99.90;;;;;;5032119;28;20033;-40
2021/07/23 01:47:59;;;;;;;16.40;11.57;;;13.80;99.90;;;;;;5034325;28;20033;-39
2021/07/23 01:50:25;;;;;;;16.58;10.38;;;13.80;99.90;;;;;;5035985;28;20032;-40
2021/07/23 01:52:50;;;;;;;18.70;10.70;;;13.70;99.90;;;;;;5035933;28;20029;-39
2021/07/23 01:55:16;;;;;;;13.70;9.15;;;13.70;99.90;;;;;;5035915;28;20419;-39
2021/07/23 01:57:41;;;;;;;22.58;12.07;;;13.70;99.90;;;;;;5035765;28;20104;-41
2021/07/23 02:00:07;;;;;;;16.13;10.27;;;13.60;99.90;;;;;;5034431;28;20033;-39
2021/07/23 02:02:34;;;;;;;21.75;12.00;;;13.60;99.90;;;;;;5035770;28;20032;-39
2021/07/23 02:05:00;;;;;;;19.80;11.35;;;13.60;99.90;;;;;;5035551;28;20428;-39
2021/07/23 02:07:29;;;;;;;17.25;10.88;;;13.50;99.90;;;;;;5035671;28;20022;-39
2021/07/23 02:09:54;;;;;;;19.10;10.98;;;13.50;99.90;;;;;;5035559;28;20053;-39
2021/07/23 02:12:20;;;;;;;17.60;11.48;;;13.50;99.90;;;;;;5035603;28;20052;-39
2021/07/23 02:14:46;;;;;;;17.73;11.55;;;13.40;99.90;;;;;;5034071;28;20029;-39
2021/07/23 02:17:13;;;;;;;20.95;12.00;;;13.40;99.90;;;;;;5035491;28;20036;-40
2021/07/23 02:19:39;;;;;;;17.50;11.40;;;13.40;99.90;;;;;;5035449;28;20100;-39
2021/07/23 02:22:05;;;;;;;17.38;11.40;;;13.40;99.90;;;;;;5035381;28;20112;-39
2021/07/23 02:24:31;;;;;;;20.52;13.05;;;13.40;99.90;;;;;;5035240;28;20025;-39
2021/07/23 02:26:56;;;;;;;21.30;12.25;;;13.30;99.90;;;;;;5035197;28;20374;-40
2021/07/23 02:29:22;;;;;;;20.35;11.70;;;13.30;99.90;;;;;;5033905;28;20022;-39
2021/07/23 02:31:47;;;;;;;18.02;11.98;;;13.30;99.90;;;;;;5035436;28;20167;-39
2021/07/23 02:34:13;;;;;;;18.08;11.63;;;13.30;99.90;;;;;;5035195;28;20084;-39
2021/07/23 02:36:38;;;;;;;19.65;12.35;;;13.20;99.90;;;;;;5034990;28;20049;-40
2021/07/23 02:39:04;;;;;;;19.23;12.60;;;13.20;99.90;;;;;;5035049;28;20151;-39
2021/07/23 02:41:30;;;;;;;23.17;14.70;;;13.20;99.90;;;;;;5035068;28;20029;-39
2021/07/23 02:43:55;;;;;;;20.85;13.48;;;13.20;99.90;;;;;;5033533;28;20092;-39
2021/07/23 02:46:21;;;;;;;22.13;13.20;;;13.10;99.90;;;;;;5034948;28;20546;-39
2021/07/23 02:48:46;;;;;;;19.50;13.35;;;13.10;99.90;;;;;;5034823;28;20033;-40
2021/07/23 02:51:12;;;;;;;21.98;12.95;;;13.10;99.90;;;;;;5034945;28;20112;-39
2021/07/23 02:53:37;;;;;;;20.98;12.82;;;13.10;99.90;;;;;;5034848;28;20465;-39
2021/07/23 02:56:03;;;;;;;21.23;11.88;;;13.10;99.90;;;;;;5034777;28;20068;-42
2021/07/23 02:58:29;;;;;;;16.48;11.10;;;13.10;99.90;;;;;;5033295;28;20025;-39
2021/07/23 03:00:54;;;;;;;21.05;11.75;;;13.10;99.90;;;;;;5034608;28;20037;-39
2021/07/23 03:03:19;;;;;;;19.77;12.27;;;13.10;99.90;;;;;;5034684;28;20029;-39
2021/07/23 03:05:45;;;;;;;19.92;11.30;;;13.10;99.90;;;;;;5034512;28;20061;-39
2021/07/23 03:08:10;;;;;;;17.65;11.50;;;13.00;99.90;;;;;;5034534;28;20551;-39
2021/07/23 03:10:36;;;;;;;14.90;10.57;;;13.00;99.90;;;;;;5034478;28;20025;-39
2021/07/23 03:13:02;;;;;;;15.95;9.93;;;13.00;99.90;;;;;;5033694;28;20057;-39
2021/07/23 03:15:27;;;;;;;18.50;11.73;;;12.90;99.90;;;;;;5034331;28;20026;-39
2021/07/23 03:17:53;;;;;;;16.60;11.48;;;13.00;99.90;;;;;;5034592;28;20439;-40
2021/07/23 03:20:18;;;;;;;16.45;9.63;;;13.00;99.90;;;;;;5034271;28;20029;-39
2021/07/23 03:22:44;;;;;;;15.07;10.13;;;13.10;99.90;;;;;;5034305;28;20037;-40
2021/07/23 03:25:11;;;;;;;14.18;9.55;;;13.10;99.90;;;;;;5034103;28;20025;-39
2021/07/23 03:27:37;;;;;;;14.35;9.32;;;13.10;99.90;;;;;;5034130;28;20132;-39
2021/07/23 03:30:04;;;;;;;20.90;11.52;;;13.20;99.90;;;;;;5032786;28;20032;-41
2021/07/23 03:32:30;;;;;;;14.60;9.13;;;13.30;99.90;;;;;;5033996;28;20018;-40
2021/07/23 03:34:55;;;;;;;16.17;10.38;;;13.30;99.90;;;;;;5033943;28;20030;-39
2021/07/23 03:37:21;;;;;;;12.93;8.60;;;13.30;99.90;;;;;;5033836;28;20080;-39
2021/07/23 03:39:46;;;;;;;11.90;8.68;;;13.40;99.90;;;;;;5033899;28;20025;-39
2021/07/23 03:42:13;;;;;;;14.77;9.77;;;13.40;99.90;;;;;;5033792;28;20060;-39
2021/07/23 03:44:38;;;;;;;14.25;9.88;;;13.50;99.90;;;;;;5032418;28;20025;-39
2021/07/23 03:47:03;;;;;;;13.63;10.00;;;13.50;99.90;;;;;;5033757;28;20033;-39
2021/07/23 03:49:29;;;;;;;14.38;10.23;;;13.60;99.90;;;;;;5033824;28;20491;-39
2021/07/23 03:51:58;;;;;;;15.63;10.68;;;13.70;99.90;;;;;;5033573;28;20030;-39
2021/07/23 03:54:24;;;;;;;13.50;9.43;;;13.80;99.90;;;;;;5033672;28;20028;-41
2021/07/23 03:56:49;;;;;;;11.23;8.63;;;13.80;99.90;;;;;;5033542;28;20030;-39
2021/07/23 03:59:15;;;;;;;17.42;11.45;;;13.90;99.90;;;;;;5032280;28;20030;-39
2021/07/23 04:01:40;;;;;;;15.82;10.38;;;13.90;99.90;;;;;;5033554;28;20029;-40
2021/07/23 04:04:06;;;;;;;14.35;9.60;;;14.00;99.90;;;;;;5033498;28;20040;-40
2021/07/23 04:06:31;;;;;;;20.65;11.82;;;14.20;99.90;;;;;;5033478;28;20033;-39
2021/07/23 04:08:57;;;;;;;14.15;9.52;;;14.30;99.90;;;;;;5033464;28;20589;-40
2021/07/23 04:11:31;;;;;;;11.50;8.90;;;14.60;99.90;;;;;;5033019;28;20017;-39
2021/07/23 04:13:57;;;;;;;12.60;8.43;;;15.20;99.90;;;;;;5032105;28;20098;-40
2021/07/23 04:16:22;;;;;;;15.23;9.63;;;15.80;99.90;;;;;;5033344;28;20103;-39
2021/07/23 04:18:48;;;;;;;11.43;8.63;;;16.10;99.90;;;;;;5033282;28;20074;-40
2021/07/23 04:21:13;;;;;;;11.93;8.35;;;16.30;99.90;;;;;;5033208;28;20568;-40
2021/07/23 04:23:38;;;;;;;12.30;8.93;;;16.70;99.90;;;;;;5033195;28;20024;-40
2021/07/23 04:26:04;;;;;;;14.10;9.32;;;17.20;99.90;;;;;;5032973;28;20076;-40
2021/07/23 04:28:30;;;;;;;13.60;9.38;;;17.80;99.90;;;;;;5031885;28;20032;-39
2021/07/23 04:30:55;;;;;;;16.05;9.93;;;18.20;99.90;;;;;;5033056;28;20029;-41
2021/07/23 04:33:21;;;;;;;14.30;9.95;;;18.80;99.90;;;;;;5033039;28;20068;-39
2021/07/23 04:35:46;;;;;;;10.38;8.38;;;19.30;99.90;;;;;;5032891;28;20105;-40
2021/07/23 04:38:11;;;;;;;12.75;8.70;;;19.90;99.90;;;;;;5032968;28;20037;-41
2021/07/23 04:40:37;;;;;;;9.85;7.78;;;20.40;99.90;;;;;;5032932;28;20389;-39
2021/07/23 04:43:03;;;;;;;9.43;7.43;;;20.80;99.90;;;;;;5031520;28;20041;-40
2021/07/23 04:45:28;;;;;;;10.73;7.72;;;21.00;99.90;;;;;;5032887;28;20480;-40
2021/07/23 04:47:54;;;;;;;12.40;9.30;;;20.60;99.90;;;;;;5032873;28;20532;-39
2021/07/23 04:50:19;;;;;;;9.60;7.68;;;20.20;99.90;;;;;;5032844;28;20048;-39
2021/07/23 04:52:45;;;;;;;11.35;7.97;;;19.80;99.90;;;;;;5032813;28;20069;-39
2021/07/23 04:55:12;;;;;;;11.60;8.77;;;20.00;99.90;;;;;;5032732;28;20045;-41
2021/07/23 04:57:45;;;;;;;10.40;8.57;;;20.70;99.90;;;;;;5032786;28;20021;-39
2021/07/23 05:00:11;;;;;;;12.30;9.60;;;21.40;99.90;;;;;;5031480;28;20452;-40
2021/07/23 05:02:38;;;;;;;12.57;9.50;;;22.10;99.90;;;;;;5032742;28;20100;-39
2021/07/23 05:05:05;;;;;;;12.10;9.60;;;22.60;99.90;;;;;;5032616;28;20083;-41
2021/07/23 05:07:31;;;;;;;14.95;10.15;;;23.20;99.90;;;;;;5032694;28;20013;-41
2021/07/23 05:09:56;;;;;;;15.60;10.18;;;23.80;99.90;;;;;;5032550;28;20101;-40
2021/07/23 05:12:23;;;;;;;14.10;9.60;;;23.70;99.90;;;;;;5032604;28;20469;-40
2021/07/23 05:14:48;;;;;;;12.13;8.40;;;23.20;99.90;;;;;;5031618;28;20028;-40
2021/07/23 05:17:14;;;;;;;12.77;9.55;;;22.70;99.90;;;;;;5032595;28;20110;-40
2021/07/23 05:19:40;;;;;;;12.55;9.52;;;22.50;99.90;;;;;;5032604;28;20022;-41
2021/07/23 05:22:06;;;;;;;14.55;9.15;;;22.90;99.90;;;;;;5015579;28;20379;-39
2021/07/23 05:24:31;;;;;;;14.90;10.50;;;23.70;99.90;;;;;;5036403;28;20018;-40
2021/07/23 05:26:58;;;;;;;12.85;9.32;;;24.60;99.90;;;;;;5036341;28;20033;-40
2021/07/23 05:29:24;;;;;;;13.93;10.57;;;25.20;99.90;;;;;;5035165;28;20021;-38
2021/07/23 05:31:49;;;;;;;10.98;8.98;;;25.70;99.90;;;;;;5036393;28;20064;-38
2021/07/23 05:34:15;;;;;;;12.80;10.55;;;26.10;99.90;;;;;;5036303;28;20025;-37
2021/07/23 05:36:40;;;;;;;9.98;8.32;;;26.00;99.90;;;;;;5036162;28;20056;-41
2021/07/23 05:39:07;;;;;;;14.27;11.00;;;26.20;99.90;;;;;;5036078;28;20029;-39
2021/07/23 05:41:33;;;;;;;12.88;9.32;;;26.50;99.90;;;;;;5036219;28;20033;-43
2021/07/23 05:43:58;;;;;;;10.27;9.20;;;27.00;99.90;;;;;;5034895;28;20025;-40
2021/07/23 05:46:24;;;;;;;13.00;10.23;;;26.90;99.90;;;;;;5035982;28;20033;-40
2021/07/23 05:48:49;;;;;;;10.85;9.10;;;27.40;99.90;;;;;;5036088;28;20018;-39
2021/07/23 05:51:15;;;;;;;10.73;8.85;;;28.00;99.90;;;;;;5035962;28;20036;-39
2021/07/23 05:53:40;;;;;;;16.45;10.32;;;28.70;99.90;;;;;;5035876;28;20029;-38
2021/07/23 05:56:06;;;;;;;10.52;8.63;;;29.30;98.40;;;;;;5035816;28;20108;-39
2021/07/23 05:58:32;;;;;;;10.73;9.55;;;29.90;96.30;;;;;;5034651;28;20030;-38
2021/07/23 06:00:58;;;;;;;10.73;8.85;;;30.40;93.90;;;;;;5035883;28;20036;-38
2021/07/23 06:03:23;;;;;;;10.80;9.70;;;30.80;92.50;;;;;;5035765;28;20033;-40
2021/07/23 06:05:49;;;;;;;10.95;9.00;;;30.90;90.50;;;;;;5035665;28;20488;-38
2021/07/23 06:08:15;;;;;;;11.25;9.27;;;31.40;88.00;;;;;;5035600;28;20079;-40
2021/07/23 06:10:41;;;;;;;11.13;9.05;;;31.70;83.70;;;;;;5035665;28;20488;-39
2021/07/23 06:13:07;;;;;;;12.23;8.68;;;32.10;80.70;;;;;;5034349;28;20033;-42
2021/07/23 06:15:34;;;;;;;11.57;8.68;;;32.40;78.80;;;;;;5035566;28;20033;-40
2021/07/23 06:17:59;;;;;;;14.77;9.63;;;32.50;76.80;;;;;;5035560;28;20033;-38
2021/07/23 06:20:25;;;;;;;11.20;8.55;;;32.00;73.80;;;;;;5035413;28;20017;-38
2021/07/23 06:22:55;;;;;;;10.10;8.73;;;31.80;73.60;;;;;;5035404;28;20030;-38
2021/07/23 06:25:21;;;;;;;9.98;7.80;;;31.60;71.90;;;;;;5035311;28;20017;-38
2021/07/23 06:27:47;;;;;;;11.95;8.82;;;31.40;73.10;;;;;;5035375;28;20377;-41
2021/07/23 06:30:13;;;;;;;10.07;8.88;;;30.80;72.00;;;;;;5034004;28;20091;-38
2021/07/23 06:32:38;;;;;;;11.68;8.57;;;30.10;73.90;;;;;;5034823;28;20029;-38
2021/07/23 06:35:04;;;;;;;10.10;8.65;;;29.90;75.10;;;;;;5035184;28;20033;-39
2021/07/23 06:37:30;;;;;;;10.43;8.98;;;30.40;71.90;;;;;;5034935;28;20056;-38
2021/07/23 06:39:55;;;;;;;10.90;8.05;;;31.40;68.30;;;;;;5035211;28;20025;-38
2021/07/23 06:42:21;;;;;;;12.18;8.23;;;32.10;64.50;;;;;;5035018;28;20377;-38
2021/07/23 06:44:50;;;;;;;10.90;8.27;;;32.90;61.70;;;;;;5033643;28;20069;-40
2021/07/23 06:47:16;;;;;;;11.13;8.02;;;33.60;58.60;;;;;;5034943;28;20026;-43
2021/07/23 06:49:41;;;;;;;11.25;7.82;;;34.10;56.50;;;;;;5035052;28;20079;-38
2021/07/23 06:52:07;;;;;;;11.55;7.88;;;34.40;54.30;;;;;;5034846;28;20104;-38
2021/07/23 06:54:34;;;;;;;10.50;8.20;;;34.20;52.10;;;;;;5034794;28;20469;-38
2021/07/23 06:57:03;;;;;;;10.05;8.30;;;34.10;51.20;;;;;;5034799;28;20042;-38
2021/07/23 06:59:29;;;;;;;8.20;7.07;;;34.40;50.00;;;;;;5033523;28;20025;-39
2021/07/23 07:01:55;;;;;;;11.40;8.65;;;34.70;49.20;;;;;;5034759;28;20361;-40
2021/07/23 07:04:20;;;;;;;10.77;8.40;;;35.10;46.60;;;;;;5034700;28;20539;-38
2021/07/23 07:06:46;;;;;;;11.75;8.55;;;35.70;45.00;;;;;;5034508;28;20482;-38
2021/07/23 07:09:11;;;;;;;11.88;8.20;;;36.10;43.20;;;;;;5034566;28;20036;-39
2021/07/23 07:11:38;;;;;;;7.82;6.88;;;36.70;42.10;;;;;;5034527;28;20084;-38
2021/07/23 07:14:05;;;;;;;12.40;7.97;;;36.50;41.70;;;;;;5033252;28;20100;-39
2021/07/23 07:16:30;;;;;;;8.98;7.75;;;35.80;42.10;;;;;;5034455;28;20031;-41
2021/07/23 07:18:56;;;;;;;9.20;7.88;;;34.90;42.20;;;;;;5034391;28;20037;-39
2021/07/23 07:21:21;;;;;;;10.63;8.52;;;34.60;42.60;;;;;;5034230;28;20032;-41
2021/07/23 07:23:47;;;;;;;10.88;8.30;;;34.40;42.80;;;;;;5034378;28;20030;-39
2021/07/23 07:26:13;;;;;;;10.15;7.60;;;34.60;42.30;;;;;;5034135;28;20030;-39
2021/07/23 07:28:38;;;;;;;9.23;7.50;;;34.90;41.40;;;;;;5032923;28;20068;-38
2021/07/23 07:31:04;;;;;;;8.60;7.43;;;35.10;40.70;;;;;;5034203;28;20061;-38
2021/07/23 07:33:30;;;;;;;7.97;7.10;;;34.50;41.00;;;;;;5034087;28;20480;-38
2021/07/23 07:35:56;;;;;;;7.97;6.85;;;35.10;41.00;;;;;;5033836;28;20018;-38
2021/07/23 07:38:22;;;;;;;8.40;6.90;;;36.00;38.20;;;;;;5034005;28;20022;-38
2021/07/23 07:40:47;;;;;;;8.20;6.63;;;36.00;34.50;;;;;;5033957;28;20034;-38
2021/07/23 07:43:13;;;;;;;8.07;5.97;;;35.80;36.10;;;;;;5032613;28;20439;-38
2021/07/23 07:45:38;;;;;;;6.97;6.25;;;35.50;35.70;;;;;;5033062;28;20100;-38
2021/07/23 07:48:04;;;;;;;7.13;5.35;;;35.40;35.70;;;;;;5033910;28;20504;-39
2021/07/23 07:50:30;;;;;;;10.18;5.90;;;34.80;36.20;;;;;;5033744;28;20033;-39
2021/07/23 07:52:56;;;;;;;6.55;5.32;;;35.00;36.40;;;;;;5033796;28;20021;-38
2021/07/23 07:55:21;;;;;;;8.02;6.15;;;35.80;35.10;;;;;;5033658;28;20106;-40
2021/07/23 07:57:47;;;;;;;8.82;6.05;;;35.70;34.70;;;;;;5033618;28;20029;-39
2021/07/23 08:00:12;;;;;;;6.97;5.75;;;36.30;33.90;;;;;;5032349;28;20033;-41
2021/07/23 08:02:38;;;;;;;8.00;6.18;;;37.00;33.00;;;;;;5033558;28;20116;-38
2021/07/23 08:05:04;;;;;;;7.60;5.53;;;37.60;32.30;;;;;;5033370;28;20101;-41
2021/07/23 08:07:32;;;;;;;10.27;6.40;;;36.90;32.70;;;;;;5033461;28;20076;-41
2021/07/23 08:10:01;;;;;;;7.40;6.57;;;36.80;32.90;;;;;;5033432;28;20013;-39
2021/07/23 08:12:29;;;;;;;9.38;6.75;;;36.50;32.80;;;;;;5033317;28;20468;-39
2021/07/23 08:14:55;;;;;;;6.18;5.57;;;36.30;32.60;;;;;;5032083;28;20424;-39
2021/07/23 08:17:20;;;;;;;6.10;5.28;;;35.30;33.80;;;;;;5033214;28;20084;-39
2021/07/23 08:19:46;;;;;;;6.70;6.00;;;34.20;35.00;;;;;;5033143;28;20105;-38
2021/07/23 08:22:12;;;;;;;7.28;5.68;;;33.10;36.10;;;;;;5033276;28;20057;-38
2021/07/23 08:24:38;;;;;;;6.78;5.90;;;32.30;37.50;;;;;;5033131;28;20038;-38
2021/07/23 08:27:04;;;;;;;7.35;6.38;;;31.50;38.80;;;;;;5033205;28;20029;-38
2021/07/23 08:29:30;;;;;;;6.32;5.50;;;30.70;40.00;;;;;;5031826;28;20410;-38
2021/07/23 08:32:07;;;;;;;6.32;5.13;;;30.00;41.50;;;;;;5033163;28;20072;-38
2021/07/23 08:34:33;;;;;;;7.20;5.85;;;30.20;43.00;;;;;;5032961;28;20034;-38
2021/07/23 08:36:58;;;;;;;7.93;5.53;;;31.00;41.40;;;;;;5032919;28;20068;-38
2021/07/23 08:39:24;;;;;;;8.30;6.20;;;32.40;39.50;;;;;;5015342;28;20029;-38
2021/07/23 08:41:50;;;;;;;8.48;5.85;;;33.50;37.50;;;;;;5015368;28;20033;-38
2021/07/23 08:44:16;;;;;;;9.50;6.90;;;34.60;35.70;;;;;;5031718;28;20026;-40
2021/07/23 08:46:42;;;;;;;7.72;5.85;;;35.60;34.30;;;;;;5032824;28;20026;-39
2021/07/23 08:49:07;;;;;;;7.82;6.13;;;36.10;33.20;;;;;;5032829;28;20032;-39
2021/07/23 08:51:33;;;;;;;6.43;5.45;;;35.40;33.60;;;;;;5032828;28;20029;-41
2021/07/23 08:53:58;;;;;;;7.38;5.40;;;34.30;34.40;;;;;;5032875;28;20119;-38
2021/07/23 08:56:24;;;;;;;6.70;5.88;;;33.40;36.20;;;;;;5032668;28;20087;-40
2021/07/23 08:58:49;;;;;;;8.38;5.93;;;32.50;37.40;;;;;;5031580;28;20452;-38
2021/07/23 09:01:15;;;;;;;7.10;5.68;;;31.70;38.40;;;;;;5032792;28;20053;-38
2021/07/23 09:03:40;;;;;;;6.20;5.32;;;31.00;40.00;;;;;;5032871;28;20072;-40
2021/07/23 09:06:17;;;;;;;7.45;6.18;;;30.40;41.10;;;;;;5032651;28;20036;-38
2021/07/23 09:08:50;;;;;;;8.00;6.57;;;30.40;42.20;;;;;;5032734;28;20032;-38
2021/07/23 09:11:27;;;;;;;8.10;6.72;;;31.90;40.40;;;;;;5032691;28;20036;-40
2021/07/23 09:14:14;;;;;;;8.25;6.63;;;33.20;37.60;;;;;;5031424;28;20354;-41
2021/07/23 09:16:40;;;;;;;7.82;6.25;;;34.10;34.50;;;;;;5032627;28;20477;-38
2021/07/23 09:19:09;;;;;;;8.20;6.35;;;34.90;34.60;;;;;;5032597;28;20105;-38
2021/07/23 09:21:39;;;;;;;8.77;7.10;;;35.50;33.50;;;;;;5032577;28;20029;-42
2021/07/23 09:24:06;;;;;;;7.38;6.15;;;34.90;32.70;;;;;;5032586;28;20408;-38
2021/07/23 09:26:40;;;;;;;7.47;6.13;;;34.60;33.90;;;;;;5032297;28;20194;-38
2021/07/23 09:29:07;;;;;;;7.63;6.53;;;34.60;34.00;;;;;;5031280;28;20028;-40
2021/07/23 09:31:33;;;;;;;6.95;6.25;;;34.80;33.50;;;;;;5032502;28;20018;-41
2021/07/23 09:33:59;;;;;;;10.00;9.00;;;35.10;32.90;;;;;;5032469;28;20376;-38
2021/07/23 09:36:26;;;;;;;9.10;7.20;;;34.60;31.50;;;;;;5032245;28;20193;-38
2021/07/23 09:39:01;;;;;;;7.47;5.60;;;34.80;31.80;;;;;;5032416;28;20105;-38
2021/07/23 09:41:26;;;;;;;7.07;5.43;;;35.50;31.70;;;;;;5032407;28;20108;-41
2021/07/23 09:44:11;;;;;;;7.13;5.88;;;36.70;30.70;;;;;;5031196;28;20537;-38
2021/07/23 09:46:41;;;;;;;6.03;5.43;;;37.50;29.00;;;;;;5032194;28;20109;-40
2021/07/23 09:49:43;;;;;;;6.00;5.18;;;37.50;29.00;;;;;;5032341;28;20025;-38
2021/07/23 09:52:09;;;;;;;5.90;5.35;;;36.50;29.10;;;;;;5022521;28;20030;-39
2021/07/23 09:54:36;;;;;;;8.02;5.97;;;35.70;30.40;;;;;;5032211;28;20051;-41
2021/07/23 09:57:07;;;;;;;8.35;6.07;;;35.10;30.70;;;;;;5032222;28;20029;-38
2021/07/23 09:59:51;;;;;;;7.78;6.80;;;34.30;31.10;;;;;;5030966;28;20113;-38
2021/07/23 10:02:18;;;;;;;6.82;5.93;;;33.10;31.80;;;;;;5032219;28;20060;-38
2021/07/23 10:05:01;;;;;;;7.85;6.43;;;32.50;33.90;;;;;;5032200;28;20079;-38
2021/07/23 10:07:37;;;;;;;8.55;7.38;;;32.30;34.50;;;;;;5032224;28;20381;-40
2021/07/23 10:10:05;;;;;;;6.72;6.03;;;32.00;34.20;;;;;;5035765;28;20018;-38
2021/07/23 10:12:31;;;;;;;9.23;6.60;;;31.90;35.30;;;;;;5035569;28;20072;-38
2021/07/23 10:14:57;;;;;;;7.72;6.93;;;31.80;35.00;;;;;;5034377;28;20473;-38
2021/07/23 10:17:24;;;;;;;13.52;7.13;;;31.50;35.50;;;;;;5035630;28;20032;-38
2021/07/23 10:19:56;;;;;;;7.32;6.47;;;31.10;37.80;;;;;;5035534;28;20022;-38
2021/07/23 10:22:21;;;;;;;8.10;6.93;;;30.50;38.40;;;;;;5035581;28;20069;-38
2021/07/23 10:24:47;;;;;;;7.90;6.90;;;30.00;39.80;;;;;;5035400;28;20029;-38
2021/07/23 10:27:13;;;;;;;11.15;6.50;;;29.70;40.70;;;;;;5035316;28;20038;-39
2021/07/23 10:29:46;;;;;;;8.13;6.82;;;29.40;41.70;;;;;;5033986;28;20067;-38
2021/07/23 10:32:26;;;;;;;10.20;6.88;;;29.10;44.10;;;;;;5035339;28;20022;-40
2021/07/23 10:34:53;;;;;;;12.13;7.35;;;28.90;44.30;;;;;;5035206;28;20083;-38
2021/07/23 10:37:52;;;;;;;7.10;6.25;;;28.70;44.10;;;;;;5035121;28;20050;-38
2021/07/23 10:40:19;;;;;;;9.50;7.18;;;28.50;46.00;;;;;;5035210;28;20117;-38
2021/07/23 10:42:46;;;;;;;9.75;7.72;;;28.60;44.00;;;;;;5034942;28;20029;-38
2021/07/23 10:45:19;;;;;;;10.60;8.63;;;28.70;44.40;;;;;;5034373;28;20040;-37
2021/07/23 10:47:51;;;;;;;10.23;7.53;;;28.80;43.80;;;;;;5035036;28;20029;-38
2021/07/23 10:50:26;;;;;;;10.48;8.00;;;28.70;43.20;;;;;;5034953;28;20445;-38
2021/07/23 10:52:52;;;;;;;13.57;7.75;;;28.70;43.40;;;;;;5034898;28;20026;-39
2021/07/23 10:55:22;;;;;;;12.48;9.57;;;28.90;43.10;;;;;;5034894;28;20473;-38
2021/07/23 10:58:25;;;;;;;15.50;8.88;;;29.00;43.30;;;;;;5034122;28;20500;-40
2021/07/23 11:00:55;;;;;;;8.23;7.22;;;28.70;45.50;;;;;;5034612;28;20025;-38
2021/07/23 11:03:36;;;;;;;8.63;7.70;;;28.80;44.90;;;;;;5034936;28;20025;-40
2021/07/23 11:06:19;;;;;;;9.80;7.97;;;29.00;43.20;;;;;;5034699;28;20021;-38
2021/07/23 11:08:52;;;;;;;11.18;7.60;;;29.00;45.10;;;;;;5034486;28;20104;-38
2021/07/23 11:11:20;;;;;;;10.40;8.02;;;29.20;43.40;;;;;;5034575;28;20064;-38
2021/07/23 11:13:45;;;;;;;10.25;7.30;;;29.30;42.80;;;;;;5033133;28;20425;-38
2021/07/23 11:16:16;;;;;;;8.55;6.78;;;29.20;42.70;;;;;;5034484;28;20152;-38
2021/07/23 11:18:58;;;;;;;7.88;7.05;;;29.20;42.70;;;;;;5034358;28;20033;-38
2021/07/23 11:21:33;;;;;;;9.15;7.68;;;29.30;43.60;;;;;;5033484;28;20072;-38
2021/07/23 11:24:00;;;;;;;8.45;7.00;;;29.60;42.90;;;;;;5034343;28;20036;-38
2021/07/23 11:26:26;;;;;;;9.40;6.95;;;29.70;42.70;;;;;;5016414;28;20482;-40
2021/07/23 11:28:58;;;;;;;8.38;6.70;;;29.70;42.00;;;;;;5032906;28;20026;-40
2021/07/23 11:31:33;;;;;;;7.82;6.53;;;29.70;40.90;;;;;;5016448;28;20032;-38
2021/07/23 11:34:00;;;;;;;9.73;7.00;;;29.70;40.90;;;;;;5034024;28;20053;-37
2021/07/23 11:36:33;;;;;;;8.25;6.32;;;29.70;41.30;;;;;;5033943;28;20076;-38
2021/07/23 11:39:05;;;;;;;10.15;7.47;;;29.60;40.80;;;;;;5034049;28;20025;-38
2021/07/23 11:41:31;;;;;;;15.00;9.70;;;29.50;40.80;;;;;;5034100;28;20028;-38
2021/07/23 11:44:10;;;;;;;9.73;7.32;;;29.30;40.60;;;;;;5032656;28;20030;-38
2021/07/23 11:46:37;;;;;;;11.65;7.45;;;29.10;42.10;;;;;;5033776;28;20036;-38
2021/07/23 11:49:03;;;;;;;9.88;7.25;;;29.10;42.40;;;;;;5033899;28;20025;-37
2021/07/23 11:51:40;;;;;;;8.85;6.47;;;29.30;42.00;;;;;;5033831;28;20029;-39
2021/07/23 11:54:06;;;;;;;11.00;7.43;;;29.50;41.60;;;;;;5033744;28;20013;-37
2021/07/23 11:56:33;;;;;;;8.30;6.93;;;29.50;41.30;;;;;;5033719;28;20026;-38
2021/07/23 11:58:59;;;;;;;7.97;6.93;;;29.60;41.20;;;;;;5032392;28;20025;-38
2021/07/23 12:01:26;;;;;;;9.75;7.07;;;29.60;41.50;;;;;;5033212;28;20044;-40
2021/07/23 12:03:55;;;;;;;9.38;6.40;;;29.60;41.50;;;;;;5033433;28;20469;-38
2021/07/23 12:06:29;;;;;;;10.73;7.35;;;29.50;41.20;;;;;;5033525;28;20068;-42
2021/07/23 12:08:55;;;;;;;7.55;6.40;;;29.30;41.00;;;;;;5033439;28;20053;-40
2021/07/23 12:11:23;;;;;;;9.65;6.72;;;29.20;41.20;;;;;;5033375;28;20021;-40
2021/07/23 12:13:50;;;;;;;8.25;6.80;;;29.10;41.70;;;;;;5032103;28;20389;-40
2021/07/23 12:16:17;;;;;;;7.88;6.50;;;28.90;42.20;;;;;;5033443;28;20449;-44
2021/07/23 12:18:59;;;;;;;7.25;6.20;;;28.90;42.80;;;;;;5033486;28;20028;-40
2021/07/23 12:21:27;;;;;;;8.38;6.95;;;29.00;44.10;;;;;;5033220;28;20116;-39
2021/07/23 12:24:00;;;;;;;8.48;6.55;;;29.10;43.10;;;;;;5033114;28;20036;-38
2021/07/23 12:26:30;;;;;;;8.63;6.38;;;29.00;42.90;;;;;;5033139;28;20075;-46
2021/07/23 12:28:57;;;;;;;9.50;6.80;;;29.00;42.50;;;;;;5031890;28;20075;-41
2021/07/23 12:31:24;;;;;;;7.05;6.32;;;29.00;42.40;;;;;;5032762;28;20018;-38
2021/07/23 12:34:02;;;;;;;8.52;6.53;;;28.90;42.10;;;;;;5033008;28;20504;-40
2021/07/23 12:36:28;;;;;;;8.50;6.60;;;28.80;40.20;;;;;;5032870;28;20384;-40
2021/07/23 12:39:01;;;;;;;7.85;6.03;;;28.70;41.70;;;;;;5032996;28;20071;-41